Time;durP1;ratioP1;P1;durP2;ratioP2;P2;SDS_P1;SDS_P2;PMS_P1;PMS_P2;Temp;Humidity;BMP_temperature;BMP_pressure;BME280_temperature;BME280_humidity;BME280_pressure;Samples;Min_cycle;Max_cycle;Signal;HPM_P1;HPM_P2
2022/09/09 00:02:05;;;;;;;15.10;13.60;;;;;;;16.86;100.00;97552.19;105764;1281;23938;-89
2022/09/09 00:04:37;;;;;;;15.00;13.70;;;;;;;16.83;100.00;97552.75;105719;1281;23385;-91
2022/09/09 00:07:16;;;;;;;15.00;13.30;;;;;;;16.80;100.00;97549.78;105836;1281;22694;-90
2022/09/09 00:09:49;;;;;;;14.40;13.10;;;;;;;16.80;100.00;97551.58;105767;1281;22537;-90
2022/09/09 00:12:27;;;;;;;14.90;13.50;;;;;;;16.80;100.00;97555.55;105702;1281;25427;-88
2022/09/09 00:15:03;;;;;;;15.90;14.40;;;;;;;16.79;100.00;97554.36;105682;1281;25366;-88
2022/09/09 00:17:33;;;;;;;15.10;13.80;;;;;;;16.76;100.00;97556.50;105714;1281;22795;-89
2022/09/09 00:20:14;;;;;;;14.50;12.50;;;;;;;16.75;100.00;97555.31;105707;1281;22546;-88
2022/09/09 00:22:59;;;;;;;17.40;15.70;;;;;;;16.75;100.00;97556.57;105676;1281;22713;-87
2022/09/09 00:25:55;;;;;;;17.10;15.10;;;;;;;16.77;100.00;97552.27;105430;1281;25333;-87
2022/09/09 00:28:27;;;;;;;16.20;14.10;;;;;;;16.78;100.00;97555.89;105349;1284;22576;-90
2022/09/09 00:30:58;;;;;;;15.40;14.10;;;;;;;16.80;100.00;97553.68;105532;1282;22999;-88
2022/09/09 00:33:26;;;;;;;16.30;14.90;;;;;;;16.81;100.00;97555.71;105458;1282;22547;-87
2022/09/09 00:35:57;;;;;;;12.90;11.60;;;;;;;16.83;100.00;97565.96;105663;1281;24296;-87
2022/09/09 00:38:37;;;;;;;15.30;14.00;;;;;;;16.79;100.00;97569.29;105630;1281;24308;-86
2022/09/09 00:41:57;;;;;;;15.20;13.70;;;;;;;16.78;100.00;97566.74;105709;1281;24525;-85
2022/09/09 00:44:37;;;;;;;16.70;15.10;;;;;;;16.77;100.00;97566.05;105725;1281;22635;-86
2022/09/09 00:47:25;;;;;;;16.80;15.30;;;;;;;16.78;100.00;97565.21;105692;1281;22656;-86
2022/09/09 00:50:00;;;;;;;18.10;16.50;;;;;;;16.76;100.00;97565.68;105731;1281;22554;-87
2022/09/09 00:52:46;;;;;;;17.50;15.80;;;;;;;16.74;100.00;97564.98;105401;1282;22538;-86
2022/09/09 00:55:44;;;;;;;16.20;14.60;;;;;;;16.71;100.00;97567.80;105600;1281;23937;-86
2022/09/09 00:58:12;;;;;;;16.60;15.10;;;;;;;16.69;100.00;97569.35;105611;1282;22873;-87
2022/09/09 01:01:11;;;;;;;15.70;14.30;;;;;;;16.68;100.00;97572.11;105620;1281;22547;-86
2022/09/09 01:03:53;;;;;;;16.80;14.50;;;;;;;16.64;100.00;97572.63;105359;1285;24256;-87
2022/09/09 01:06:33;;;;;;;17.10;15.50;;;;;;;16.63;100.00;97571.91;105355;1285;22546;-87
2022/09/09 01:09:15;;;;;;;14.50;12.90;;;;;;;16.63;100.00;97576.66;105385;1285;22683;-87
2022/09/09 01:11:55;;;;;;;16.00;14.50;;;;;;;16.66;100.00;97576.66;105269;1285;22692;-87
2022/09/09 01:14:38;;;;;;;16.30;14.80;;;;;;;16.63;100.00;97576.35;105334;1285;25425;-86
2022/09/09 01:17:23;;;;;;;16.10;14.50;;;;;;;16.61;100.00;97586.08;105170;1285;25523;-88
2022/09/09 01:20:22;;;;;;;16.40;14.90;;;;;;;16.57;100.00;97587.77;105145;1285;22566;-86
2022/09/09 01:23:20;;;;;;;17.50;15.70;;;;;;;16.57;100.00;97589.48;105101;1285;25219;-87
2022/09/09 01:26:03;;;;;;;19.80;17.90;;;;;;;16.55;100.00;97593.83;105253;1285;23283;-86
2022/09/09 01:28:35;;;;;;;18.00;16.20;;;;;;;16.56;100.00;97596.89;105347;1285;23437;-87
2022/09/09 01:31:11;;;;;;;16.30;14.70;;;;;;;16.55;100.00;97600.45;105154;1285;22827;-87
2022/09/09 01:33:44;;;;;;;19.10;17.30;;;;;;;16.55;100.00;97602.31;105219;1285;22672;-85
2022/09/09 01:36:20;;;;;;;19.40;17.50;;;;;;;16.54;100.00;97600.31;105758;1281;25353;-88
2022/09/09 01:38:51;;;;;;;21.00;18.90;;;;;;;16.50;100.00;97600.84;105724;1281;23395;-86
2022/09/09 01:41:19;;;;;;;19.80;17.70;;;;;;;16.49;100.00;97598.95;105532;1281;22680;-89
2022/09/09 01:43:53;;;;;;;19.10;17.30;;;;;;;16.49;100.00;97599.25;105647;1281;23395;-88
2022/09/09 01:46:23;;;;;;;19.40;17.60;;;;;;;16.44;100.00;97599.58;105860;1281;22562;-87
2022/09/09 01:48:53;;;;;;;19.20;17.10;;;;;;;16.36;100.00;97596.70;105672;1281;25221;-90
2022/09/09 01:51:22;;;;;;;19.10;17.40;;;;;;;16.30;100.00;97596.55;105425;1281;22597;-87
2022/09/09 01:53:50;;;;;;;19.00;17.30;;;;;;;16.25;100.00;97592.19;105778;1280;24903;-87
2022/09/09 01:56:31;;;;;;;21.20;19.40;;;;;;;16.23;100.00;97597.81;105438;1281;23943;-89
2022/09/09 01:59:47;;;;;;;19.30;17.30;;;;;;;16.23;100.00;97600.20;105463;1282;25419;-89
2022/09/09 02:02:29;;;;;;;22.20;19.90;;;;;;;16.19;100.00;97602.90;105319;1284;25238;-90
2022/09/09 02:05:40;;;;;;;24.00;21.70;;;;;;;16.19;100.00;97603.52;105561;1281;22699;-89
2022/09/09 02:08:36;;;;;;;21.00;19.30;;;;;;;16.16;100.00;97607.08;105501;1281;23938;-87
2022/09/09 02:11:13;;;;;;;20.40;18.60;;;;;;;16.18;100.00;97611.39;105737;1281;24220;-89
2022/09/09 02:14:19;;;;;;;21.70;19.80;;;;;;;16.13;100.00;97612.19;105702;1281;22629;-88
2022/09/09 02:17:16;;;;;;;21.00;19.00;;;;;;;16.09;100.00;97611.59;105725;1281;24253;-89
2022/09/09 02:20:14;;;;;;;24.30;22.10;;;;;;;16.06;100.00;97609.64;105657;1281;24394;-87
2022/09/09 02:22:56;;;;;;;24.60;22.40;;;;;;;16.04;100.00;97616.86;105722;1281;26511;-89
2022/09/09 02:25:28;;;;;;;22.70;20.90;;;;;;;16.04;100.00;97618.40;105713;1281;22562;-88
2022/09/09 02:28:01;;;;;;;22.80;20.60;;;;;;;16.04;100.00;97621.06;105624;1281;22562;-89
2022/09/09 02:30:32;;;;;;;25.10;22.90;;;;;;;16.05;100.00;97625.77;105483;1282;25494;-89
2022/09/09 02:33:05;;;;;;;23.40;21.30;;;;;;;16.08;100.00;97629.58;105722;1281;22645;-86
2022/09/09 02:35:44;;;;;;;23.20;21.30;;;;;;;16.08;100.00;97633.23;105635;1281;23422;-88
2022/09/09 02:38:16;;;;;;;21.60;19.50;;;;;;;16.09;100.00;97635.29;105464;1281;25434;-90
2022/09/09 02:40:53;;;;;;;22.20;20.20;;;;;;;16.08;100.00;97637.17;105522;1282;25499;-89
2022/09/09 02:43:22;;;;;;;24.00;21.90;;;;;;;16.07;100.00;97642.21;105503;1281;24310;-90
2022/09/09 02:46:01;;;;;;;23.40;20.80;;;;;;;16.07;100.00;97643.61;105679;1281;23976;-88
2022/09/09 02:48:40;;;;;;;22.40;20.20;;;;;;;16.07;100.00;97650.98;105671;1281;23936;-90
2022/09/09 02:51:18;;;;;;;22.00;19.90;;;;;;;16.08;100.00;97651.30;105863;1281;25413;-91
2022/09/09 02:54:07;;;;;;;20.30;18.60;;;;;;;16.07;100.00;97650.68;105620;1281;22562;-90
2022/09/09 02:56:41;;;;;;;20.40;18.40;;;;;;;16.08;100.00;97649.07;105702;1281;23901;-87
2022/09/09 02:59:11;;;;;;;20.70;18.80;;;;;;;16.06;100.00;97651.48;105704;1281;24283;-86
2022/09/09 03:01:40;;;;;;;19.50;17.60;;;;;;;16.06;100.00;97653.80;105735;1281;25455;-87
2022/09/09 03:04:09;;;;;;;21.00;19.00;;;;;;;16.04;100.00;97658.17;105778;1281;22547;-88
2022/09/09 03:06:39;;;;;;;22.50;20.20;;;;;;;16.03;100.00;97658.54;105685;1281;24105;-87
2022/09/09 03:09:15;;;;;;;20.90;18.80;;;;;;;16.02;100.00;97660.66;105724;1281;25920;-85
2022/09/09 03:11:43;;;;;;;20.20;18.30;;;;;;;16.00;100.00;97665.30;105613;1281;22629;-87
2022/09/09 03:14:12;;;;;;;21.10;19.00;;;;;;;15.98;100.00;97663.11;105610;1281;23270;-86
2022/09/09 03:16:42;;;;;;;19.50;17.80;;;;;;;15.92;100.00;97666.80;105824;1281;25289;-87
2022/09/09 03:19:10;;;;;;;21.20;19.30;;;;;;;15.86;100.00;97670.67;105651;1281;22721;-87
2022/09/09 03:21:38;;;;;;;22.80;20.70;;;;;;;15.84;100.00;97675.88;105689;1281;24490;-88
2022/09/09 03:24:07;;;;;;;23.80;20.90;;;;;;;15.82;100.00;97675.02;105425;1282;25368;-87
2022/09/09 03:26:35;;;;;;;21.20;18.90;;;;;;;15.78;100.00;97667.38;105660;1281;24085;-88
2022/09/09 03:29:06;;;;;;;21.90;19.50;;;;;;;15.81;100.00;97669.88;105629;1281;25314;-87
2022/09/09 03:31:35;;;;;;;22.40;20.10;;;;;;;15.83;100.00;97666.05;105611;1281;23968;-89
2022/09/09 03:34:03;;;;;;;21.50;17.50;;;;;;;15.82;100.00;97667.58;105705;1281;22621;-90
2022/09/09 03:36:33;;;;;;;19.10;17.30;;;;;;;15.82;100.00;97666.41;105665;1281;22565;-90
2022/09/09 03:39:03;;;;;;;18.40;16.60;;;;;;;15.78;100.00;97667.06;105708;1281;25516;-88
2022/09/09 03:41:31;;;;;;;19.90;18.00;;;;;;;15.76;100.00;97671.41;105675;1281;22567;-88
2022/09/09 03:44:00;;;;;;;18.00;16.10;;;;;;;15.74;100.00;97669.39;105628;1281;25313;-86
2022/09/09 03:46:31;;;;;;;16.60;15.00;;;;;;;15.75;100.00;97669.66;105693;1281;23948;-87
2022/09/09 03:48:59;;;;;;;19.60;17.70;;;;;;;15.71;100.00;97669.62;105510;1281;24099;-90
2022/09/09 03:51:27;;;;;;;19.30;17.70;;;;;;;15.68;100.00;97670.70;105594;1281;25237;-88
2022/09/09 03:53:57;;;;;;;22.30;20.30;;;;;;;15.68;100.00;97677.98;105505;1281;22781;-89
2022/09/09 03:56:26;;;;;;;19.30;17.70;;;;;;;15.65;100.00;97679.33;105614;1281;22734;-88
2022/09/09 03:58:54;;;;;;;18.60;17.00;;;;;;;15.62;100.00;97680.70;105629;1281;25329;-88
2022/09/09 04:01:22;;;;;;;18.10;16.70;;;;;;;15.61;100.00;97681.06;105598;1281;23160;-90
2022/09/09 04:03:51;;;;;;;16.50;14.80;;;;;;;15.60;100.00;97684.89;105605;1280;24246;-87
2022/09/09 04:06:21;;;;;;;17.00;15.50;;;;;;;15.58;100.00;97687.10;105500;1281;22673;-89
2022/09/09 04:08:49;;;;;;;16.10;14.80;;;;;;;15.59;100.00;97692.48;105476;1281;22538;-95
2022/09/09 04:11:17;;;;;;;17.10;15.40;;;;;;;15.60;100.00;97695.22;105714;1281;22605;-90
2022/09/09 04:13:45;;;;;;;17.70;16.00;;;;;;;15.60;100.00;97698.88;105484;1281;25524;-87
2022/09/09 04:16:14;;;;;;;17.00;15.50;;;;;;;15.61;100.00;97701.30;105883;1281;22478;-90
2022/09/09 04:18:43;;;;;;;16.60;14.90;;;;;;;15.61;100.00;97695.80;105950;1281;22607;-90
2022/09/09 04:21:12;;;;;;;17.70;16.00;;;;;;;15.60;100.00;97694.06;105733;1281;22744;-90
2022/09/09 04:23:40;;;;;;;17.00;15.50;;;;;;;15.58;100.00;97693.93;105663;1281;22547;-89
2022/09/09 04:26:08;;;;;;;16.80;15.40;;;;;;;15.58;100.00;97694.23;105760;1281;24328;-91
2022/09/09 04:28:37;;;;;;;18.20;16.40;;;;;;;15.60;100.00;97693.91;105749;1281;22696;-88
2022/09/09 04:31:22;;;;;;;20.00;18.40;;;;;;;15.60;100.00;97694.69;105747;1281;25476;-88
2022/09/09 04:33:53;;;;;;;23.10;21.00;;;;;;;15.61;100.00;97696.27;105736;1281;25498;-91
2022/09/09 04:36:22;;;;;;;20.60;18.80;;;;;;;15.60;100.00;97694.67;105498;1282;22559;-89
2022/09/09 04:38:52;;;;;;;23.00;20.80;;;;;;;15.59;100.00;97698.91;105532;1281;23680;-89
2022/09/09 04:41:20;;;;;;;21.70;19.60;;;;;;;15.60;100.00;97696.61;105581;1282;24249;-88
2022/09/09 04:43:53;;;;;;;21.70;19.70;;;;;;;15.61;100.00;97701.21;105717;1281;24008;-88
2022/09/09 04:46:22;;;;;;;22.50;20.70;;;;;;;15.62;100.00;97701.96;105973;1281;25313;-89
2022/09/09 04:48:52;;;;;;;23.40;21.30;;;;;;;15.63;100.00;97698.57;105805;1281;25097;-90
2022/09/09 04:51:20;;;;;;;22.00;19.90;;;;;;;15.62;100.00;97703.27;105617;1282;23430;-89
2022/09/09 04:53:50;;;;;;;19.90;18.30;;;;;;;15.61;100.00;97702.05;105713;1281;25374;-90
2022/09/09 04:56:19;;;;;;;20.30;18.50;;;;;;;15.57;100.00;97700.70;105548;1282;22585;-90
2022/09/09 04:58:55;;;;;;;21.70;19.10;;;;;;;15.57;100.00;97701.95;105746;1282;22559;-89
2022/09/09 05:01:27;;;;;;;19.00;17.30;;;;;;;15.57;100.00;97701.41;105567;1282;22550;-91
2022/09/09 05:04:01;;;;;;;19.70;18.00;;;;;;;15.56;100.00;97702.83;105594;1281;22569;-88
2022/09/09 05:06:31;;;;;;;19.50;17.50;;;;;;;15.55;100.00;97705.58;105693;1281;22603;-89
2022/09/09 05:09:00;;;;;;;18.70;16.80;;;;;;;15.56;100.00;97709.05;105443;1281;25422;-87
2022/09/09 05:11:32;;;;;;;18.40;16.60;;;;;;;15.55;100.00;97705.39;105643;1281;22557;-87
2022/09/09 05:14:27;;;;;;;18.00;16.20;;;;;;;15.58;100.00;97704.52;105595;1281;22557;-87
2022/09/09 05:16:56;;;;;;;19.70;18.00;;;;;;;15.61;100.00;97701.78;105486;1282;25635;-86
2022/09/09 05:19:24;;;;;;;19.20;17.30;;;;;;;15.64;100.00;97702.10;105563;1282;25452;-88
2022/09/09 05:21:52;;;;;;;18.90;17.20;;;;;;;15.62;100.00;97703.68;105611;1281;25427;-87
2022/09/09 05:24:24;;;;;;;18.70;16.90;;;;;;;15.60;100.00;97702.91;105667;1281;25448;-87
2022/09/09 05:26:57;;;;;;;22.10;20.10;;;;;;;15.60;100.00;97710.27;105746;1281;22550;-89
2022/09/09 05:29:26;;;;;;;26.40;24.10;;;;;;;15.62;100.00;97708.64;105403;1281;25350;-88
2022/09/09 05:31:55;;;;;;;24.30;22.00;;;;;;;15.66;100.00;97714.89;105566;1280;25479;-88
2022/09/09 05:34:24;;;;;;;26.30;24.00;;;;;;;15.64;100.00;97719.56;105724;1281;25739;-88
2022/09/09 05:36:53;;;;;;;28.00;25.60;;;;;;;15.65;100.00;97715.48;105741;1281;22550;-86
2022/09/09 05:39:22;;;;;;;28.60;26.10;;;;;;;15.69;100.00;97717.88;105765;1281;25253;-86
2022/09/09 05:41:51;;;;;;;29.20;26.70;;;;;;;15.72;100.00;97720.26;105900;1281;22543;-87
2022/09/09 05:44:19;;;;;;;26.10;23.90;;;;;;;15.76;100.00;97717.75;108188;1281;22681;-85
2022/09/09 05:46:47;;;;;;;25.40;23.10;;;;;;;15.80;100.00;97720.75;107601;1281;22634;-86
2022/09/09 05:49:16;;;;;;;20.40;18.40;;;;;;;15.83;100.00;97720.00;107773;1281;22647;-89
2022/09/09 05:51:44;;;;;;;26.90;24.40;;;;;;;15.83;100.00;97724.58;105664;1281;25292;-89
2022/09/09 05:54:15;;;;;;;27.20;24.60;;;;;;;15.82;100.00;97726.66;105748;1281;22662;-88
2022/09/09 05:56:47;;;;;;;20.00;17.90;;;;;;;15.85;100.00;97726.29;105368;1281;22557;-90
2022/09/09 05:59:19;;;;;;;47.10;30.20;;;;;;;15.89;100.00;97728.36;105636;1282;22834;-91
2022/09/09 06:01:47;;;;;;;31.80;23.70;;;;;;;15.93;100.00;97727.17;105702;1281;23606;-88
2022/09/09 06:04:26;;;;;;;28.90;25.70;;;;;;;16.00;100.00;97725.44;105457;1281;22871;-88
2022/09/09 06:06:54;;;;;;;25.80;22.80;;;;;;;16.06;100.00;97723.24;105669;1281;24316;-87
2022/09/09 06:09:22;;;;;;;27.80;23.00;;;;;;;16.17;100.00;97726.08;105705;1280;22574;-89
2022/09/09 06:11:50;;;;;;;23.70;21.40;;;;;;;16.27;100.00;97727.26;105769;1281;25305;-86
2022/09/09 06:14:20;;;;;;;22.70;20.40;;;;;;;16.38;100.00;97730.45;105506;1281;25381;-90
2022/09/09 06:16:49;;;;;;;24.50;22.10;;;;;;;16.40;100.00;97730.35;105739;1281;23587;-93
2022/09/09 06:19:20;;;;;;;24.30;22.20;;;;;;;16.35;100.00;97731.45;105742;1281;25391;-89
2022/09/09 06:21:50;;;;;;;24.20;21.80;;;;;;;16.32;100.00;97732.16;105876;1281;22742;-89
2022/09/09 06:24:19;;;;;;;22.70;19.60;;;;;;;16.34;100.00;97735.65;105835;1281;25508;-89
2022/09/09 06:26:48;;;;;;;22.90;20.50;;;;;;;16.40;100.00;97739.06;105926;1280;24373;-90
2022/09/09 06:29:20;;;;;;;25.10;23.00;;;;;;;16.46;100.00;97737.09;106038;1281;25361;-88
2022/09/09 06:31:48;;;;;;;21.50;19.30;;;;;;;16.53;100.00;97737.40;105574;1282;22549;-88
2022/09/09 06:34:21;;;;;;;23.90;21.20;;;;;;;16.65;100.00;97732.85;105511;1281;24086;-87
2022/09/09 06:36:51;;;;;;;19.10;17.30;;;;;;;16.74;100.00;97730.35;105677;1281;25334;-90
2022/09/09 06:39:20;;;;;;;19.30;17.30;;;;;;;16.83;100.00;97730.63;105844;1281;22544;-89
2022/09/09 06:41:49;;;;;;;19.60;17.80;;;;;;;16.96;100.00;97735.29;105797;1282;22697;-90
2022/09/09 06:44:44;;;;;;;20.20;18.30;;;;;;;17.08;100.00;97736.65;105649;1281;25378;-89
2022/09/09 06:47:17;;;;;;;22.10;18.20;;;;;;;17.16;100.00;97735.64;105813;1281;22646;-85
2022/09/09 06:49:46;;;;;;;19.90;17.90;;;;;;;17.26;100.00;97734.81;105839;1281;25836;-92
2022/09/09 06:52:18;;;;;;;19.90;17.80;;;;;;;17.36;100.00;97730.41;105799;1282;24207;-92
2022/09/09 06:54:46;;;;;;;15.60;13.80;;;;;;;17.52;100.00;97731.72;106308;1281;24284;-91
2022/09/09 06:57:16;;;;;;;15.40;13.20;;;;;;;17.68;100.00;97730.96;106364;1281;24346;-91
2022/09/09 07:00:06;;;;;;;18.40;15.80;;;;;;;17.87;100.00;97733.66;106428;1280;24017;-90
2022/09/09 07:02:38;;;;;;;17.40;15.90;;;;;;;17.99;100.00;97730.99;106075;1281;23104;-90
2022/09/09 07:05:08;;;;;;;19.70;18.00;;;;;;;17.98;100.00;97734.65;105755;1281;25340;-90
2022/09/09 07:07:36;;;;;;;19.70;17.00;;;;;;;18.00;100.00;97731.81;105663;1283;22534;-93
2022/09/09 07:10:05;;;;;;;14.70;11.30;;;;;;;18.05;100.00;97732.26;105865;1281;22526;-90
2022/09/09 07:12:34;;;;;;;11.70;10.50;;;;;;;18.11;100.00;97725.08;105468;1282;25421;-90
2022/09/09 07:15:03;;;;;;;13.10;11.70;;;;;;;18.16;100.00;97724.97;105712;1281;22563;-89
2022/09/09 07:17:31;;;;;;;11.70;9.30;;;;;;;18.22;100.00;97731.27;105705;1281;23950;-92
2022/09/09 07:20:00;;;;;;;11.00;8.90;;;;;;;18.20;100.00;97728.95;105571;1282;25300;-93
2022/09/09 07:22:28;;;;;;;13.10;11.70;;;;;;;18.17;100.00;97728.09;106099;1281;25446;-92
2022/09/09 07:24:56;;;;;;;13.10;10.40;;;;;;;18.16;99.98;97727.85;105750;1281;24230;-90
2022/09/09 07:27:26;;;;;;;11.30;9.20;;;;;;;18.22;100.00;97722.77;105879;1281;22483;-92
2022/09/09 07:29:54;;;;;;;11.30;9.50;;;;;;;18.25;99.39;97722.91;106184;1281;22566;-92
2022/09/09 07:32:22;;;;;;;24.40;22.10;;;;;;;18.22;98.90;97722.15;106260;1281;22576;-92
2022/09/09 07:34:50;;;;;;;14.80;12.00;;;;;;;18.22;99.40;97720.81;105835;1281;24257;-89
2022/09/09 07:37:18;;;;;;;15.10;13.40;;;;;;;18.29;99.16;97723.00;105680;1281;25716;-90
2022/09/09 07:39:47;;;;;;;10.20;8.00;;;;;;;18.40;98.62;97721.33;105683;1281;25248;-88
2022/09/09 07:42:17;;;;;;;14.20;7.90;;;;;;;18.46;98.48;97722.31;105492;1281;22605;-90
2022/09/09 07:44:45;;;;;;;7.40;6.50;;;;;;;18.48;96.63;97724.16;105617;1281;24264;-88
2022/09/09 07:47:15;;;;;;;9.80;6.40;;;;;;;18.40;95.21;97728.64;105723;1281;23970;-87
2022/09/09 07:49:49;;;;;;;10.90;6.00;;;;;;;18.42;96.34;97726.83;106119;1281;22689;-91
2022/09/09 07:52:24;;;;;;;12.10;7.40;;;;;;;18.54;94.28;97727.40;105969;1281;22542;-86
2022/09/09 07:54:56;;;;;;;9.20;8.00;;;;;;;18.56;94.34;97726.03;105730;1281;22649;-82
2022/09/09 07:57:25;;;;;;;8.60;6.90;;;;;;;18.64;95.03;97731.84;106122;1281;22662;-85
2022/09/09 07:59:53;;;;;;;8.00;6.30;;;;;;;18.71;95.51;97734.09;105846;1281;25359;-85
2022/09/09 08:02:21;;;;;;;10.50;6.00;;;;;;;18.74;92.93;97739.42;105730;1281;24429;-86
2022/09/09 08:04:51;;;;;;;11.10;7.10;;;;;;;18.62;92.45;97737.80;105826;1281;25336;-87
2022/09/09 08:07:21;;;;;;;9.70;7.70;;;;;;;18.57;91.82;97741.98;105558;1282;25473;-86
2022/09/09 08:09:54;;;;;;;9.90;6.00;;;;;;;18.53;92.12;97744.63;105659;1282;22719;-86
2022/09/09 08:12:26;;;;;;;11.70;7.00;;;;;;;18.63;92.52;97743.28;105465;1281;25309;-86
2022/09/09 08:14:55;;;;;;;13.30;7.20;;;;;;;18.82;91.07;97742.65;105455;1282;24293;-85
2022/09/09 08:17:24;;;;;;;9.10;6.20;;;;;;;18.97;91.13;97741.41;105637;1281;25365;-90
2022/09/09 08:19:54;;;;;;;9.30;6.50;;;;;;;19.06;91.09;97747.05;105643;1282;25294;-89
2022/09/09 08:22:26;;;;;;;9.80;5.90;;;;;;;19.19;90.63;97746.22;105719;1281;25471;-86
2022/09/09 08:24:55;;;;;;;7.00;4.50;;;;;;;19.37;89.24;97750.59;105743;1281;22814;-90
2022/09/09 08:27:24;;;;;;;8.40;4.60;;;;;;;19.52;89.95;97749.46;105836;1281;22544;-94
2022/09/09 08:29:53;;;;;;;7.20;4.30;;;;;;;19.58;89.99;97748.24;105869;1281;22605;-91
2022/09/09 08:32:21;;;;;;;6.30;3.80;;;;;;;19.52;86.63;97753.76;106260;1281;22765;-92
2022/09/09 08:34:51;;;;;;;7.10;4.20;;;;;;;19.39;86.40;97759.75;106106;1281;25368;-94
2022/09/09 08:37:23;;;;;;;10.20;4.40;;;;;;;19.30;84.78;97760.83;106468;1281;25321;-94
2022/09/09 08:39:51;;;;;;;8.40;4.50;;;;;;;19.23;85.08;97761.06;106130;1280;24328;-92
2022/09/09 08:42:46;;;;;;;7.80;4.80;;;;;;;19.31;87.10;97760.98;105894;1281;22565;-88
2022/09/09 08:45:26;;;;;;;6.70;4.10;;;;;;;19.42;84.74;97762.01;105890;1282;26621;-89
2022/09/09 08:48:18;;;;;;;7.10;4.20;;;;;;;19.47;85.78;97759.44;105901;1281;22566;-91
2022/09/09 08:50:50;;;;;;;5.80;3.80;;;;;;;19.62;84.86;97762.02;105793;1281;25307;-93
2022/09/09 08:53:30;;;;;;;7.80;4.30;;;;;;;19.72;84.88;97757.06;107483;1272;23167;-88
2022/09/09 08:56:03;;;;;;;5.70;3.80;;;;;;;19.81;81.49;97757.77;109325;1278;22725;-91
2022/09/09 08:58:44;;;;;;;4.90;3.70;;;;;;;19.89;83.07;97757.45;109236;1270;22545;-90
2022/09/09 09:08:12;;;;;;;6.40;3.00;;;;;;;20.17;80.68;97752.05;109107;1269;22368;31
2022/09/09 09:10:50;;;;;;;6.50;2.90;;;;;;;20.17;80.59;97749.25;109267;1268;22943;31
2022/09/09 09:13:52;;;;;;;4.70;2.90;;;;;;;20.12;78.76;97749.85;108225;1271;22623;-85
2022/09/09 09:19:35;;;;;;;4.80;2.70;;;;;;;20.44;78.87;97750.70;108682;1269;23714;31
2022/09/09 09:25:10;;;;;;;5.10;3.00;;;;;;;20.88;78.88;97747.55;108328;1281;22734;-92
2022/09/09 09:27:58;;;;;;;4.00;2.80;;;;;;;21.16;77.13;97745.88;108288;1282;22574;-94
2022/09/09 09:30:34;;;;;;;4.10;2.30;;;;;;;21.36;77.81;97741.77;108393;1273;22487;-93
2022/09/09 09:36:04;;;;;;;4.60;2.90;;;;;;;21.62;78.40;97741.44;108416;1271;22683;-90
2022/09/09 09:38:33;;;;;;;2.80;1.80;;;;;;;21.63;76.64;97739.63;108176;1281;22588;-86
2022/09/09 09:41:39;;;;;;;4.60;2.10;;;;;;;21.37;70.77;97742.24;108004;1269;22584;-90
2022/09/09 09:47:45;;;;;;;6.30;2.60;;;;;;;21.16;72.01;97747.36;109165;1271;22833;31
2022/09/09 09:50:20;;;;;;;5.20;2.70;;;;;;;21.07;71.61;97750.15;108580;1274;22576;-85
2022/09/09 09:52:56;;;;;;;4.70;2.80;;;;;;;21.08;72.47;97749.21;108815;1270;23961;-87
2022/09/09 09:55:35;;;;;;;5.00;3.00;;;;;;;21.20;72.98;97743.65;107402;1271;1684480;31
2022/09/09 09:58:05;;;;;;;6.80;2.60;;;;;;;21.43;73.66;97745.42;108846;1273;22565;-88
2022/09/09 10:00:35;;;;;;;4.10;2.40;;;;;;;21.62;71.86;97745.42;109117;1272;22688;-90
2022/09/09 10:06:10;;;;;;;5.20;2.30;;;;;;;21.92;70.59;97741.65;109143;1269;22804;-86
2022/09/09 10:08:46;;;;;;;5.30;2.50;;;;;;;22.07;71.61;97738.19;109045;1271;23652;31
2022/09/09 10:11:35;;;;;;;4.00;2.20;;;;;;;22.11;71.41;97740.09;109158;1271;22588;-92
2022/09/09 10:14:17;;;;;;;3.40;2.00;;;;;;;22.01;67.82;97741.98;108222;1271;22695;-91
2022/09/09 10:16:52;;;;;;;4.10;2.30;;;;;;;21.85;68.16;97733.97;109094;1272;22577;31
2022/09/09 10:19:36;;;;;;;2.50;2.00;;;;;;;21.92;69.64;97736.94;109066;1271;22468;-90
2022/09/09 10:25:18;;;;;;;3.20;1.70;;;;;;;22.21;67.68;97736.74;109154;1271;24087;31
2022/09/09 10:27:49;;;;;;;4.80;2.00;;;;;;;22.57;67.96;97741.58;108892;1282;22531;-91
2022/09/09 10:33:32;;;;;;;2.70;1.80;;;;;;;23.13;63.64;97753.56;108766;1270;23595;-92
2022/09/09 10:36:18;;;;;;;3.70;1.80;;;;;;;23.39;64.95;97750.30;109104;1271;24073;31
2022/09/09 10:42:14;;;;;;;2.40;1.50;;;;;;;23.69;64.62;97748.35;108867;1269;22583;-90
2022/09/09 10:44:44;;;;;;;2.40;1.70;;;;;;;23.72;64.77;97747.34;108817;1281;22564;-92
2022/09/09 10:47:34;;;;;;;3.00;1.80;;;;;;;23.72;63.45;97750.89;108957;1281;22783;-88
2022/09/09 10:50:31;;;;;;;2.60;1.60;;;;;;;23.61;62.74;97751.08;107548;1281;23131;-92
2022/09/09 10:53:48;;;;;;;5.00;2.00;;;;;;;23.38;60.68;97755.23;107465;1281;22571;-93
2022/09/09 10:56:21;;;;;;;3.20;1.80;;;;;;;23.41;58.71;97756.90;106587;1288;22547;-92
2022/09/09 10:59:12;;;;;;;2.60;1.70;;;;;;;23.30;58.94;97758.34;106946;1288;22710;-92
2022/09/09 11:01:54;;;;;;;3.60;1.90;;;;;;;23.22;59.83;97755.41;107318;1288;22904;-92
2022/09/09 11:04:26;;;;;;;2.70;1.70;;;;;;;23.18;60.49;97752.33;107413;1287;22570;-93
2022/09/09 11:06:55;;;;;;;4.50;1.80;;;;;;;23.11;59.12;97755.35;107489;1288;22699;-91
2022/09/09 11:09:32;;;;;;;4.60;1.60;;;;;;;22.98;57.44;97754.26;107354;1288;22990;-93
2022/09/09 11:12:03;;;;;;;2.00;1.60;;;;;;;22.84;58.03;97754.63;106980;1288;24416;-90
2022/09/09 11:14:55;;;;;;;4.70;2.30;;;;;;;22.80;57.56;97754.13;107209;1287;23003;-93
2022/09/09 11:17:46;;;;;;;2.50;1.50;;;;;;;22.73;55.12;97759.34;107513;1287;24440;-91
2022/09/09 11:20:15;;;;;;;2.60;1.80;;;;;;;22.48;56.01;97752.11;107818;1286;22686;-89
2022/09/09 11:23:19;;;;;;;2.80;1.60;;;;;;;22.41;56.93;97752.69;107747;1287;25326;-93
2022/09/09 11:25:57;;;;;;;2.30;1.90;;;;;;;22.49;58.26;97746.55;105782;1287;22506;-84
2022/09/09 11:29:11;;;;;;;2.30;1.90;;;;;;;22.56;58.42;97745.58;106263;1287;24284;-91
2022/09/09 11:31:59;;;;;;;2.40;1.80;;;;;;;22.58;57.46;97749.74;106231;1293;23989;-93
2022/09/09 11:34:41;;;;;;;3.40;1.90;;;;;;;22.48;56.02;97750.92;106062;1285;22531;-93
2022/09/09 11:37:21;;;;;;;4.80;1.90;;;;;;;22.29;56.40;97754.39;106096;1285;24550;-91
2022/09/09 11:40:09;;;;;;;2.20;1.90;;;;;;;22.13;56.15;97756.90;106345;1285;22721;-92
2022/09/09 11:42:38;;;;;;;4.40;1.90;;;;;;;22.02;56.51;97755.30;105574;1285;25360;-91
2022/09/09 11:45:23;;;;;;;3.20;1.80;;;;;;;22.00;57.03;97754.02;105602;1285;23620;-88
2022/09/09 11:47:56;;;;;;;2.30;1.80;;;;;;;22.15;57.00;97753.09;105549;1285;25551;-90
2022/09/09 11:50:24;;;;;;;5.70;2.10;;;;;;;22.31;55.12;97755.52;105767;1285;23991;-93
2022/09/09 11:53:14;;;;;;;4.20;1.90;;;;;;;22.41;54.85;97758.73;106542;1285;22598;-91
2022/09/09 11:55:42;;;;;;;4.00;2.10;;;;;;;22.55;55.08;97761.90;107464;1285;22858;-90
2022/09/09 11:58:10;;;;;;;4.10;1.90;;;;;;;22.47;54.81;97760.02;107584;1285;22579;-91
2022/09/09 12:00:44;;;;;;;3.10;1.80;;;;;;;22.36;55.74;97759.23;106674;1285;22575;-92
2022/09/09 12:03:39;;;;;;;2.20;1.80;;;;;;;22.38;55.96;97757.85;105731;1282;24271;-82
2022/09/09 12:06:31;;;;;;;2.90;1.90;;;;;;;22.37;55.70;97756.65;105602;1282;22620;-81
2022/09/09 12:09:39;;;;;;;4.00;1.70;;;;;;;22.66;55.78;97755.53;105584;1282;25459;-81
2022/09/09 12:12:13;;;;;;;4.60;1.80;;;;;;;22.78;54.02;97760.48;105287;1282;23098;-82
2022/09/09 12:14:41;;;;;;;2.20;1.80;;;;;;;22.73;54.32;97759.50;105396;1282;23462;-82
2022/09/09 12:17:19;;;;;;;4.00;2.20;;;;;;;22.73;52.90;97759.02;105377;1282;22670;-81
2022/09/09 12:20:02;;;;;;;2.50;1.70;;;;;;;22.79;53.16;97755.15;105451;1282;22591;-83